Mingus, TX (76463)

3:10 PM CDT on July 27, 2016 (GMT -0500)
Unnamed Road | | Change Station

Elev 1177 ft 32.63 °N, 98.49 °W | Updated 5 minutes ago

Clear
Clear
93.0 °F
Feels Like 100 °F
N
6.2
Wind Variable Wind from South
Gusts 11.2 mph

Today
High -- | Low -- °F
--% Chance of Precip.
Yesterday
High -- | Low -- °F
Precip. -- in
Pressure 29.85 in
Visibility 10.0 miles
Clouds Clear
Heat Index 100 °F
Dew Point 72 °F
Humidity 49%
Rainfall 0.00 in
Snow Depth Not available.
6:44 AM 8:35 PM
Last Quarter, 40% visible
METAR KMWL 271953Z AUTO 15007KT 080V190 10SM VCTS CLR 36/21 A2990 RMK AO2 LTG DSNT N AND NE SLP106 T03610206
Pressure 29.85 in
Visibility 10.0 miles
Clouds Clear
Heat Index 100 °F
Dew Point 72 °F
Humidity 49%
Rainfall 0.00 in
Snow Depth Not available.
6:44 AM 8:35 PM
Last Quarter, 40% visible
METAR KMWL 271953Z AUTO 15007KT 080V190 10SM VCTS CLR 36/21 A2990 RMK AO2 LTG DSNT N AND NE SLP106 T03610206

10-Day Weather Forecast

Almanac

Astronomy

Jul. 27, 2016 Rise Set
Actual Time
Civil Twilight
Nautical Twilight
Astronomical Twilight
Moon
Length of Visible Light
Length of Day
Tomorrow will be .
, % of the Moon is Illuminated

Today's Extremes

State Highs State Lows

Community

WunderPhotos

Upload Photos

1,927,931 photos uploaded!

WunderBlog® & News

Nearby

Air Quality

  Air Quality AQ Index Pollutant
Not available.

Snow Depth

Station Depth Elevation

Earthquake Activity

City Distance Mag. Time & Date
Minimum magnitude displayed is 2.5.

Coastal Water Temperatures

Place Temperature

Stations

Nearby Weather Stations

Station Location Temp. Windchill Dew Point Humidity Wind Precip. Elev Updated Type
                   

Watches & Warnings

There are currently no watches in effect.